createdAt,value
2024-01-17T00:01:29.150Z,96669.91
2024-01-17T00:06:33.067Z,96662.75
2024-01-17T00:11:36.273Z,96655.09
2024-01-17T00:16:40.777Z,96647.31
2024-01-17T00:21:43.918Z,96640.59
2024-01-17T00:26:47.137Z,96630.75
2024-01-17T00:31:51.626Z,96629.75
2024-01-17T00:36:55.003Z,96626.56
2024-01-17T00:41:58.160Z,96624.03
2024-01-17T00:47:02.657Z,96616.44
2024-01-17T00:52:06.443Z,96612.03
2024-01-17T00:57:09.675Z,96601.16
2024-01-17T01:02:14.254Z,96587.34
2024-01-17T01:07:17.397Z,96592.97
2024-01-17T01:12:20.541Z,96573.88
2024-01-17T01:17:25.085Z,96567.13
2024-01-17T01:22:28.267Z,96579.44
2024-01-17T01:27:31.393Z,96570.84
2024-01-17T01:32:35.958Z,96581.75
2024-01-17T01:37:39.136Z,96580.28
2024-01-17T01:42:45.256Z,96590.84
2024-01-17T01:47:49.916Z,96573.00
2024-01-17T01:52:53.573Z,96557.84
2024-01-17T01:57:56.829Z,96543.03
2024-01-17T02:03:01.459Z,96536.06
2024-01-17T02:08:05.244Z,96513.25
2024-01-17T02:13:09.612Z,96505.41
2024-01-17T02:18:14.334Z,96491.66
2024-01-17T02:23:25.317Z,96478.03
2024-01-17T02:28:31.100Z,96466.63
2024-01-17T02:33:34.815Z,96460.91
2024-01-17T02:38:38.164Z,96454.19
2024-01-17T02:43:42.822Z,96458.25
2024-01-17T02:48:46.061Z,96444.81
2024-01-17T02:53:49.307Z,96439.00
2024-01-17T02:58:53.793Z,96436.84
2024-01-17T03:03:57.003Z,96430.22
2024-01-17T03:09:00.285Z,96422.41
2024-01-17T03:14:04.940Z,96428.53
2024-01-17T03:19:08.835Z,96414.81
2024-01-17T03:24:12.270Z,96409.09
2024-01-17T03:29:16.789Z,96386.88
2024-01-17T03:34:19.974Z,96375.75
2024-01-17T03:39:23.481Z,96372.56
2024-01-17T03:44:28.065Z,96364.44
2024-01-17T03:49:31.252Z,96367.44
2024-01-17T03:54:34.375Z,96368.69
2024-01-17T03:59:38.883Z,96356.44
2024-01-17T04:04:42.946Z,96354.06
2024-01-17T04:09:46.497Z,96351.44
2024-01-17T04:14:51.054Z,96345.72
2024-01-17T04:19:54.343Z,96332.44
2024-01-17T04:24:57.470Z,96303.06
2024-01-17T04:30:02.050Z,96289.56
2024-01-17T04:35:06.067Z,96277.94
2024-01-17T04:40:11.293Z,96266.41
2024-01-17T04:45:15.827Z,96240.72
2024-01-17T04:50:19.231Z,96241.69
2024-01-17T04:55:22.395Z,96229.84
2024-01-17T05:00:27.155Z,96228.91
2024-01-17T05:05:30.333Z,96216.69
2024-01-17T05:10:33.515Z,96213.38
2024-01-17T05:15:38.482Z,96195.38
2024-01-17T05:20:42.316Z,96183.06
2024-01-17T05:25:45.490Z,96165.28
2024-01-17T05:30:50.506Z,96151.91
2024-01-17T05:35:53.677Z,96135.13
2024-01-17T05:40:58.006Z,96120.00
2024-01-17T05:46:03.299Z,96099.75
2024-01-17T05:51:07.423Z,96093.94
2024-01-17T05:56:10.630Z,96079.13
2024-01-17T06:01:15.586Z,96071.72
2024-01-17T06:06:19.110Z,96049.59
2024-01-17T06:11:22.332Z,96043.88
2024-01-17T06:16:26.817Z,96031.81
2024-01-17T06:21:31.018Z,96028.22
2024-01-17T06:26:34.386Z,96015.38
2024-01-17T06:31:39.360Z,96006.91
2024-01-17T06:36:43.898Z,95990.66
2024-01-17T06:41:47.606Z,95986.41
2024-01-17T06:46:52.148Z,95971.59
2024-01-17T06:51:55.289Z,95958.47
2024-01-17T06:56:58.491Z,95957.28
2024-01-17T07:02:03.009Z,95942.72
2024-01-17T07:07:06.213Z,95941.53
2024-01-17T07:12:09.601Z,95929.91
2024-01-17T07:17:14.057Z,95931.97
2024-01-17T07:22:17.306Z,95921.59
2024-01-17T07:27:20.479Z,95920.53
2024-01-17T07:32:25.025Z,95903.19
2024-01-17T07:37:28.191Z,95895.19
2024-01-17T07:42:31.261Z,95886.84
2024-01-17T07:47:35.849Z,95884.84
2024-01-17T07:52:39.258Z,95875.56
2024-01-17T07:57:42.370Z,95863.28
2024-01-17T08:02:46.923Z,95869.97
2024-01-17T08:07:50.048Z,95861.47
2024-01-17T08:12:53.194Z,95854.25
2024-01-17T08:17:57.691Z,95855.88
2024-01-17T08:23:00.827Z,95856.47
2024-01-17T08:28:04.634Z,95846.00
2024-01-17T08:33:09.272Z,95839.16
2024-01-17T08:38:12.673Z,95826.09
2024-01-17T08:43:15.780Z,95813.94
2024-01-17T08:48:20.555Z,95809.47
2024-01-17T08:53:23.729Z,95805.59
2024-01-17T08:58:27.063Z,95798.91
2024-01-17T09:03:33.500Z,95795.09
2024-01-17T09:08:36.755Z,95780.81
2024-01-17T09:13:39.890Z,95774.72
2024-01-17T09:18:44.436Z,95772.50
2024-01-17T09:23:47.615Z,95752.56
2024-01-17T09:28:50.799Z,95754.06
2024-01-17T09:33:55.414Z,95737.84
2024-01-17T09:38:58.692Z,95734.06
2024-01-17T09:44:04.250Z,95724.09
2024-01-17T09:49:09.383Z,95711.69
2024-01-17T09:54:16.370Z,95707.81
2024-01-17T09:59:29.014Z,95704.34
2024-01-17T10:04:35.763Z,95676.16
2024-01-17T10:09:39.812Z,95675.09
2024-01-17T10:14:43.103Z,95657.78
2024-01-17T10:19:48.894Z,95642.94
2024-01-17T10:24:54.417Z,95625.69
2024-01-17T10:29:57.965Z,95617.47
2024-01-17T10:35:06.828Z,95587.22
2024-01-17T10:40:12.918Z,95570.00
2024-01-17T10:45:24.828Z,95560.59
2024-01-17T10:50:31.714Z,95541.91
2024-01-17T10:55:39.840Z,95522.03
2024-01-17T11:00:46.608Z,95506.31
2024-01-17T11:05:52.618Z,95497.00
2024-01-17T11:10:56.904Z,95494.41
2024-01-17T11:16:02.918Z,95484.75
2024-01-17T11:21:07.738Z,95458.34
2024-01-17T11:26:20.017Z,95438.97
2024-01-17T11:31:39.433Z,95431.16
2024-01-17T11:36:47.058Z,95424.66
2024-01-17T11:41:52.349Z,95418.31
2024-01-17T11:46:56.049Z,95406.56
2024-01-17T11:52:00.777Z,95401.31
2024-01-17T11:57:08.078Z,95401.91
2024-01-17T12:02:38.163Z,95385.81
2024-01-17T12:07:45.078Z,95348.03
2024-01-17T12:12:48.429Z,95343.84
2024-01-17T12:17:51.802Z,95318.84
2024-01-17T12:22:56.663Z,95312.81
2024-01-17T12:27:59.945Z,95299.34
2024-01-17T12:33:04.142Z,95295.19
2024-01-17T12:38:09.310Z,95269.78
2024-01-17T12:43:13.155Z,95270.28
2024-01-17T12:48:17.088Z,95269.75
2024-01-17T12:53:21.658Z,95257.31
2024-01-17T12:58:25.090Z,95252.69
2024-01-17T13:03:28.252Z,95249.84
2024-01-17T13:08:32.785Z,95238.97
2024-01-17T13:13:36.061Z,95232.00
2024-01-17T13:18:39.222Z,95222.81
2024-01-17T13:23:43.747Z,95199.81
2024-01-17T13:28:46.880Z,95196.09
2024-01-17T13:33:51.150Z,95181.22
2024-01-17T13:38:55.847Z,95188.72
2024-01-17T13:43:58.991Z,95179.25
2024-01-17T13:49:02.206Z,95173.56
2024-01-17T13:54:16.306Z,95157.69
2024-01-17T13:59:19.892Z,95159.59
2024-01-17T14:04:23.519Z,95149.03
2024-01-17T14:09:31.552Z,95145.34
2024-01-17T14:14:34.801Z,95151.13
2024-01-17T14:19:38.135Z,95156.81
2024-01-17T14:24:42.822Z,95147.66
2024-01-17T14:29:45.956Z,95143.34
2024-01-17T14:34:49.168Z,95141.66
2024-01-17T14:39:53.752Z,95140.00
2024-01-17T14:44:57.333Z,95134.53
2024-01-17T14:50:00.687Z,95114.41
2024-01-17T14:55:08.152Z,95105.94
2024-01-17T15:00:20.376Z,95100.34
2024-01-17T15:05:25.904Z,95080.56
2024-01-17T15:10:30.492Z,95070.44
2024-01-17T15:15:33.635Z,95047.84
2024-01-17T15:20:36.812Z,95077.41
2024-01-17T15:25:41.912Z,95100.81
2024-01-17T15:30:46.250Z,95097.44
2024-01-17T15:35:49.642Z,95091.59
2024-01-17T15:41:00.029Z,95061.34
2024-01-17T15:46:03.120Z,95057.75
2024-01-17T15:51:07.527Z,95085.63
2024-01-17T15:56:13.498Z,95107.03
2024-01-17T16:01:16.665Z,95102.44
2024-01-17T16:06:20.173Z,95092.72
2024-01-17T16:11:24.777Z,95091.19
2024-01-17T16:16:27.889Z,95080.59
2024-01-17T16:21:32.067Z,95051.22
2024-01-17T16:26:36.577Z,95078.31
2024-01-17T16:31:46.247Z,95100.78
2024-01-17T16:36:49.384Z,95089.63
2024-01-17T16:41:53.813Z,95097.50
2024-01-17T16:46:56.983Z,95093.13
2024-01-17T16:52:00.069Z,95094.88
2024-01-17T16:57:05.051Z,95088.78
2024-01-17T17:02:08.166Z,95078.28
2024-01-17T17:07:11.298Z,95074.41
2024-01-17T17:12:15.867Z,95044.84
2024-01-17T17:17:19.054Z,95026.31
2024-01-17T17:22:30.067Z,95029.00
2024-01-17T17:27:38.504Z,95035.97
2024-01-17T17:32:41.832Z,95035.03
2024-01-17T17:37:45.032Z,95030.88
2024-01-17T17:42:49.542Z,95038.50
2024-01-17T17:47:52.792Z,95039.19
2024-01-17T17:52:56.284Z,95059.03
2024-01-17T17:58:00.741Z,95045.41
2024-01-17T18:03:06.052Z,95056.63
2024-01-17T18:08:11.500Z,95060.75
2024-01-17T18:13:16.032Z,95056.69
2024-01-17T18:18:19.374Z,95058.28
2024-01-17T18:23:22.773Z,95060.44
2024-01-17T18:28:27.408Z,95036.78
2024-01-17T18:33:30.593Z,95044.41
2024-01-17T18:38:34.494Z,95048.56
2024-01-17T18:43:40.793Z,95045.66
2024-01-17T18:48:44.814Z,95041.00
2024-01-17T18:53:49.447Z,95048.31
2024-01-17T18:58:55.369Z,95032.56
2024-01-17T19:04:00.457Z,95031.75
2024-01-17T19:09:06.672Z,95035.84
2024-01-17T19:14:11.893Z,95034.75
2024-01-17T19:19:15.244Z,95027.13
2024-01-17T19:24:19.268Z,95023.19
2024-01-17T19:29:23.715Z,95023.28
2024-01-17T19:34:27.277Z,95019.47
2024-01-17T19:39:30.438Z,95036.81
2024-01-17T19:44:35.663Z,95040.47
2024-01-17T19:49:39.423Z,95044.44
2024-01-17T19:54:44.513Z,95061.66
2024-01-17T19:59:49.199Z,95065.31
2024-01-17T20:04:53.299Z,95078.78
2024-01-17T20:09:57.496Z,95079.91
2024-01-17T20:15:02.341Z,95078.50
2024-01-17T20:20:07.284Z,95076.16
2024-01-17T20:25:14.523Z,95071.63
2024-01-17T20:30:21.664Z,95063.19
2024-01-17T20:35:25.163Z,95075.22
2024-01-17T20:40:30.111Z,95084.88
2024-01-17T20:45:34.671Z,95087.84
2024-01-17T20:50:37.795Z,95086.91
2024-01-17T20:55:41.314Z,95075.88
2024-01-17T21:00:45.883Z,95073.22
2024-01-17T21:05:49.169Z,95080.47
2024-01-17T21:10:52.325Z,95086.47
2024-01-17T21:15:57.282Z,95084.72
2024-01-17T21:21:00.727Z,95083.56
2024-01-17T21:26:04.821Z,95086.38
2024-01-17T21:31:09.275Z,95104.38
2024-01-17T21:36:22.949Z,95098.94
2024-01-17T21:41:27.211Z,95096.00
2024-01-17T21:46:31.871Z,95108.44
2024-01-17T21:51:37.652Z,95110.22
2024-01-17T21:56:40.867Z,95108.22
2024-01-17T22:01:45.351Z,95109.47
2024-01-17T22:06:48.518Z,95112.44
2024-01-17T22:11:51.704Z,95118.19
2024-01-17T22:16:56.479Z,95118.47
2024-01-17T22:21:59.567Z,95109.94
2024-01-17T22:27:02.858Z,95130.75
2024-01-17T22:32:07.887Z,95123.91
2024-01-17T22:37:11.131Z,95139.25
2024-01-17T22:42:14.646Z,95138.50
2024-01-17T22:47:19.096Z,95130.50
2024-01-17T22:52:22.186Z,95140.47
2024-01-17T22:57:25.660Z,95138.63
2024-01-17T23:02:30.597Z,95134.91
2024-01-17T23:07:33.732Z,95144.31
2024-01-17T23:12:36.898Z,95150.66
2024-01-17T23:17:41.542Z,95149.19
2024-01-17T23:22:44.698Z,95137.53
2024-01-17T23:27:47.758Z,95140.78
2024-01-17T23:32:52.429Z,95137.53
2024-01-17T23:37:55.648Z,95142.16
2024-01-17T23:42:58.727Z,95146.13
2024-01-17T23:48:03.338Z,95154.41
2024-01-17T23:53:06.492Z,95148.94
2024-01-17T23:58:09.770Z,95157.16
